createdAt,value
2024-02-22T00:01:47.178Z,7.03
2024-02-22T00:04:57.425Z,7.25
2024-02-22T00:08:05.813Z,6.95
2024-02-22T00:11:17.431Z,6.90
2024-02-22T00:14:26.996Z,7.03
2024-02-22T00:17:38.394Z,7.57
2024-02-22T00:20:48.468Z,6.43
2024-02-22T00:24:02.137Z,6.95
2024-02-22T00:27:10.912Z,6.85
2024-02-22T00:30:22.302Z,6.85
2024-02-22T00:33:29.967Z,6.70
2024-02-22T00:36:46.107Z,6.82
2024-02-22T00:39:54.929Z,7.18
2024-02-22T00:43:06.889Z,7.25
2024-02-22T00:46:15.365Z,7.15
2024-02-22T00:49:26.741Z,6.85
2024-02-22T00:52:38.577Z,6.20
2024-02-22T00:55:49.188Z,5.80
2024-02-22T00:58:57.958Z,6.87
2024-02-22T01:02:10.674Z,6.55
2024-02-22T01:05:20.402Z,6.15
2024-02-22T01:08:29.495Z,6.47
2024-02-22T01:11:39.294Z,6.68
2024-02-22T01:14:49.954Z,6.20
2024-02-22T01:18:01.112Z,6.20
2024-02-22T01:21:10.913Z,6.30
2024-02-22T01:24:19.613Z,6.47
2024-02-22T01:27:30.334Z,6.55
2024-02-22T01:30:39.531Z,5.85
2024-02-22T01:33:47.833Z,6.47
2024-02-22T01:36:58.258Z,7.00
2024-02-22T01:40:12.810Z,6.78
2024-02-22T01:43:23.354Z,5.72
2024-02-22T01:46:34.755Z,6.20
2024-02-22T01:49:43.926Z,6.55
2024-02-22T01:52:55.223Z,6.10
2024-02-22T01:56:04.416Z,6.03
2024-02-22T01:59:13.134Z,6.18
2024-02-22T02:02:23.237Z,6.37
2024-02-22T02:05:35.541Z,6.00
2024-02-22T02:08:45.213Z,5.53
2024-02-22T02:11:55.584Z,5.75
2024-02-22T02:15:03.183Z,6.78
2024-02-22T02:18:11.600Z,6.22
2024-02-22T02:21:33.673Z,6.15
2024-02-22T02:25:01.209Z,5.30
2024-02-22T02:28:09.193Z,5.95
2024-02-22T02:31:18.182Z,5.12
2024-02-22T02:34:26.944Z,5.20
2024-02-22T02:37:36.285Z,5.40
2024-02-22T02:40:45.376Z,4.60
2024-02-22T02:43:56.188Z,5.60
2024-02-22T02:47:09.005Z,5.95
2024-02-22T02:50:16.825Z,5.72
2024-02-22T02:53:24.716Z,5.60
2024-02-22T02:56:34.484Z,6.28
2024-02-22T02:59:43.096Z,6.20
2024-02-22T03:02:54.925Z,6.82
2024-02-22T03:06:04.755Z,5.55
2024-02-22T03:09:15.816Z,5.95
2024-02-22T03:12:23.957Z,5.60
2024-02-22T03:15:33.774Z,5.47
2024-02-22T03:18:43.546Z,5.78
2024-02-22T03:21:54.766Z,5.72
2024-02-22T03:25:06.414Z,5.40
2024-02-22T03:28:19.129Z,6.03
2024-02-22T03:31:29.816Z,5.70
2024-02-22T03:34:44.257Z,6.12
2024-02-22T03:37:57.005Z,5.80
2024-02-22T03:41:09.416Z,5.53
2024-02-22T03:44:19.857Z,5.70
2024-02-22T03:47:33.735Z,5.82
2024-02-22T03:50:44.127Z,5.80
2024-02-22T03:53:54.507Z,5.37
2024-02-22T03:57:02.058Z,5.75
2024-02-22T04:00:12.723Z,5.82
2024-02-22T04:03:19.411Z,6.00
2024-02-22T04:06:24.524Z,5.78
2024-02-22T04:09:28.405Z,6.22
2024-02-22T04:12:33.469Z,5.75
2024-02-22T04:15:46.703Z,5.37
2024-02-22T04:18:54.213Z,6.45
2024-02-22T04:22:01.821Z,5.37
2024-02-22T04:25:08.550Z,6.03
2024-02-22T04:28:20.253Z,5.93
2024-02-22T04:31:28.047Z,6.12
2024-02-22T04:34:35.816Z,6.12
2024-02-22T04:37:46.507Z,6.07
2024-02-22T04:40:54.637Z,5.93
2024-02-22T04:44:04.389Z,6.05
2024-02-22T04:47:15.454Z,6.55
2024-02-22T04:50:20.768Z,6.62
2024-02-22T04:53:28.895Z,6.25
2024-02-22T04:56:39.122Z,5.90
2024-02-22T04:59:49.497Z,6.10
2024-02-22T05:02:58.052Z,6.28
2024-02-22T05:06:10.410Z,6.28
2024-02-22T05:09:19.522Z,6.05
2024-02-22T05:12:30.242Z,6.28
2024-02-22T05:15:39.871Z,6.82
2024-02-22T05:18:49.810Z,7.03
2024-02-22T05:21:59.255Z,7.37
2024-02-22T05:25:12.186Z,7.10
2024-02-22T05:28:20.735Z,7.40
2024-02-22T05:31:33.315Z,6.82
2024-02-22T05:34:40.341Z,7.32
2024-02-22T05:37:51.057Z,7.32
2024-02-22T05:41:02.114Z,7.28
2024-02-22T05:44:15.640Z,6.93
2024-02-22T05:47:27.221Z,6.75
2024-02-22T05:50:34.008Z,7.18
2024-02-22T05:53:45.359Z,7.90
2024-02-22T05:56:56.467Z,7.32
2024-02-22T06:00:03.157Z,7.53
2024-02-22T06:06:30.079Z,7.25
2024-02-22T06:09:39.414Z,7.40
2024-02-22T06:12:50.778Z,8.05
2024-02-22T06:15:58.857Z,7.50
2024-02-22T06:19:07.987Z,7.72
2024-02-22T06:22:15.158Z,7.87
2024-02-22T06:25:20.996Z,7.82
2024-02-22T06:28:27.402Z,8.35
2024-02-22T06:31:34.206Z,7.85
2024-02-22T06:34:45.176Z,7.90
2024-02-22T06:37:54.125Z,7.78
2024-02-22T06:41:05.322Z,8.07
2024-02-22T06:44:14.648Z,7.75
2024-02-22T06:47:22.554Z,7.85
2024-02-22T06:50:31.842Z,7.75
2024-02-22T06:53:36.746Z,8.38
2024-02-22T06:56:45.684Z,7.57
2024-02-22T06:59:50.825Z,7.62
2024-02-22T07:02:59.864Z,7.65
2024-02-22T07:06:07.362Z,7.90
2024-02-22T07:09:13.585Z,6.55
2024-02-22T07:12:17.076Z,7.53
2024-02-22T07:15:23.124Z,7.70
2024-02-22T07:18:27.020Z,7.70
2024-02-22T07:21:38.478Z,7.53
2024-02-22T07:24:47.036Z,7.82
2024-02-22T07:27:53.682Z,7.75
2024-02-22T07:31:00.821Z,7.12
2024-02-22T07:34:07.414Z,7.90
2024-02-22T07:37:15.548Z,7.30
2024-02-22T07:40:22.500Z,6.95
2024-02-22T07:43:32.883Z,7.93
2024-02-22T07:46:39.277Z,7.55
2024-02-22T07:49:44.410Z,7.10
2024-02-22T07:52:52.029Z,7.12
2024-02-22T07:59:00.348Z,6.53
2024-02-22T08:02:08.456Z,6.00
2024-02-22T08:05:14.588Z,7.37
2024-02-22T08:08:19.079Z,7.03
2024-02-22T08:11:27.366Z,9.65
2024-02-22T08:14:33.895Z,9.63
2024-02-22T08:17:44.863Z,7.70
2024-02-22T08:20:52.419Z,7.10
2024-02-22T08:23:57.127Z,6.87
2024-02-22T08:27:02.312Z,6.10
2024-02-22T08:30:12.070Z,5.28
2024-02-22T08:33:17.526Z,7.82
2024-02-22T08:36:24.472Z,7.97
2024-02-22T08:39:32.077Z,7.30
2024-02-22T08:42:37.220Z,6.82
2024-02-22T08:45:40.061Z,7.40
2024-02-22T08:48:45.733Z,5.68
2024-02-22T08:51:50.923Z,6.37
2024-02-22T08:54:57.976Z,6.68
2024-02-22T08:58:04.716Z,5.55
2024-02-22T09:01:15.326Z,5.53
2024-02-22T09:04:29.310Z,6.35
2024-02-22T09:07:40.545Z,5.70
2024-02-22T09:10:45.146Z,5.15
2024-02-22T09:13:51.638Z,5.68
2024-02-22T09:16:57.727Z,5.37
2024-02-22T09:20:02.818Z,5.47
2024-02-22T09:23:09.407Z,5.53
2024-02-22T09:26:15.807Z,5.72
2024-02-22T09:32:29.694Z,5.53
2024-02-22T09:35:37.672Z,5.60
2024-02-22T09:38:44.990Z,5.57
2024-02-22T09:41:50.077Z,5.75
2024-02-22T09:44:56.342Z,5.45
2024-02-22T09:48:01.753Z,6.00
2024-02-22T09:51:07.105Z,5.85
2024-02-22T09:54:12.258Z,6.95
2024-02-22T09:57:18.123Z,6.72
2024-02-22T10:00:22.914Z,4.97
2024-02-22T10:03:33.426Z,5.60
2024-02-22T10:06:39.106Z,4.82
2024-02-22T10:09:46.358Z,4.87
2024-02-22T10:12:49.981Z,5.20
2024-02-22T10:15:55.324Z,4.62
2024-02-22T10:19:02.369Z,5.15
2024-02-22T10:22:06.537Z,4.75
2024-02-22T10:25:14.122Z,4.43
2024-02-22T10:28:19.274Z,4.62
2024-02-22T10:31:25.274Z,4.53
2024-02-22T10:34:34.970Z,4.75
2024-02-22T10:37:41.331Z,4.50
2024-02-22T10:40:48.701Z,4.43
2024-02-22T10:43:56.698Z,4.50
2024-02-22T10:47:07.781Z,4.87
2024-02-22T10:50:17.993Z,3.90
2024-02-22T10:53:23.893Z,4.12
2024-02-22T10:56:32.730Z,4.03
2024-02-22T10:59:41.606Z,4.05
2024-02-22T11:02:47.272Z,4.80
2024-02-22T11:05:55.332Z,4.50
2024-02-22T11:09:07.002Z,4.72
2024-02-22T11:12:14.635Z,4.35
2024-02-22T11:15:18.403Z,4.32
2024-02-22T11:18:27.491Z,4.35
2024-02-22T11:21:32.490Z,4.40
2024-02-22T11:24:37.412Z,5.55
2024-02-22T11:27:40.391Z,4.65
2024-02-22T11:30:48.074Z,4.80
2024-02-22T11:33:54.721Z,5.68
2024-02-22T11:37:18.660Z,5.32
2024-02-22T11:40:24.825Z,6.50
2024-02-22T11:43:29.738Z,5.20
2024-02-22T11:46:40.196Z,5.20
2024-02-22T11:49:47.242Z,5.47
2024-02-22T11:52:52.971Z,5.43
2024-02-22T11:55:58.304Z,5.47
2024-02-22T11:59:03.993Z,5.40
2024-02-22T12:02:08.641Z,5.55
2024-02-22T12:05:14.145Z,5.10
2024-02-22T12:08:18.304Z,5.62
2024-02-22T12:11:24.936Z,5.53
2024-02-22T12:14:30.000Z,5.70
2024-02-22T12:17:36.806Z,5.47
2024-02-22T12:20:42.001Z,6.12
2024-02-22T12:23:46.736Z,6.30
2024-02-22T12:26:54.194Z,6.12
2024-02-22T12:30:00.697Z,6.18
2024-02-22T12:33:11.649Z,6.12
2024-02-22T12:36:16.534Z,5.97
2024-02-22T12:39:21.683Z,6.40
2024-02-22T12:42:27.518Z,6.37
2024-02-22T12:45:30.912Z,6.72
2024-02-22T12:48:34.288Z,6.50
2024-02-22T12:51:37.722Z,6.95
2024-02-22T12:54:40.993Z,6.65
2024-02-22T12:57:43.920Z,6.82
2024-02-22T13:00:51.345Z,6.53
2024-02-22T13:03:57.835Z,6.37
2024-02-22T13:07:04.181Z,6.75
2024-02-22T13:10:10.759Z,7.12
2024-02-22T13:13:15.411Z,5.97
2024-02-22T13:16:19.618Z,5.78
2024-02-22T13:19:24.267Z,3.15
2024-02-22T13:22:27.684Z,2.55
2024-02-22T13:25:31.250Z,2.62
2024-02-22T13:28:36.108Z,2.80
2024-02-22T13:31:43.331Z,2.60
2024-02-22T13:34:49.314Z,2.30
2024-02-22T13:37:58.339Z,2.67
2024-02-22T13:41:05.023Z,2.78
2024-02-22T13:44:17.417Z,2.65
2024-02-22T13:47:27.518Z,2.75
2024-02-22T13:50:33.463Z,2.80
2024-02-22T13:53:41.130Z,2.87
2024-02-22T13:56:47.313Z,2.97
2024-02-22T13:59:50.662Z,2.63
2024-02-22T14:02:56.244Z,2.78
2024-02-22T14:06:09.269Z,2.78
2024-02-22T14:09:19.611Z,2.70
2024-02-22T14:12:27.457Z,2.80
2024-02-22T14:15:30.629Z,2.80
2024-02-22T14:18:39.283Z,2.83
2024-02-22T14:21:50.850Z,2.42
2024-02-22T14:25:00.979Z,2.60
2024-02-22T14:28:12.990Z,2.70
2024-02-22T14:31:20.871Z,2.80
2024-02-22T14:34:28.690Z,2.83
2024-02-22T14:37:38.431Z,2.62
2024-02-22T14:40:51.141Z,2.72
2024-02-22T14:44:03.020Z,2.83
2024-02-22T14:47:07.403Z,2.85
2024-02-22T14:50:17.987Z,2.80
2024-02-22T14:53:25.618Z,2.60
2024-02-22T14:56:35.366Z,2.67
2024-02-22T14:59:45.987Z,2.78
2024-02-22T15:02:57.549Z,2.90
2024-02-22T15:06:10.385Z,3.20
2024-02-22T15:09:24.714Z,2.75
2024-02-22T15:12:37.286Z,3.30
2024-02-22T15:15:48.687Z,2.80
2024-02-22T15:18:58.329Z,2.92
2024-02-22T15:22:06.730Z,2.62
2024-02-22T15:25:15.458Z,2.55
2024-02-22T15:28:27.173Z,2.80
2024-02-22T15:31:37.077Z,2.58
2024-02-22T15:34:46.116Z,3.00
2024-02-22T15:37:56.209Z,2.80
2024-02-22T15:41:08.447Z,2.62
2024-02-22T15:44:18.313Z,3.08
2024-02-22T15:47:26.875Z,3.03
2024-02-22T15:50:31.712Z,2.65
2024-02-22T15:53:39.032Z,2.95
2024-02-22T15:56:44.121Z,3.00
2024-02-22T15:59:50.161Z,2.85
2024-02-22T16:06:07.043Z,2.83
2024-02-22T16:09:17.906Z,2.72
2024-02-22T16:12:31.335Z,2.80
2024-02-22T16:15:41.844Z,2.72
2024-02-22T16:18:54.405Z,3.50
2024-02-22T16:22:05.352Z,3.10
2024-02-22T16:25:18.651Z,3.00
2024-02-22T16:28:33.804Z,2.85
2024-02-22T16:31:53.030Z,3.00
2024-02-22T16:35:06.599Z,2.60
2024-02-22T16:38:26.834Z,2.72
2024-02-22T16:41:41.713Z,3.10
2024-02-22T16:44:57.293Z,3.00
2024-02-22T16:48:11.599Z,2.90
2024-02-22T16:51:26.992Z,2.70
2024-02-22T16:54:39.022Z,3.00
2024-02-22T16:57:55.500Z,2.33
2024-02-22T17:01:11.360Z,2.72
2024-02-22T17:04:23.500Z,2.80
2024-02-22T17:07:36.778Z,2.78
2024-02-22T17:10:52.767Z,2.78
2024-02-22T17:14:04.964Z,3.08
2024-02-22T17:17:20.513Z,2.33
2024-02-22T17:20:35.399Z,2.62
2024-02-22T17:23:49.432Z,2.10
2024-02-22T17:27:03.744Z,2.60
2024-02-22T17:30:19.733Z,2.35
2024-02-22T17:36:50.207Z,2.40
2024-02-22T17:40:05.166Z,2.03
2024-02-22T17:43:19.368Z,2.65
2024-02-22T17:46:35.439Z,2.20
2024-02-22T17:49:51.748Z,2.28
2024-02-22T17:53:07.404Z,2.42
2024-02-22T17:56:24.500Z,2.40
2024-02-22T17:59:41.539Z,2.20
2024-02-22T18:03:03.385Z,2.00
2024-02-22T18:06:24.552Z,2.42
2024-02-22T18:09:36.467Z,2.28
2024-02-22T18:12:55.602Z,2.45
2024-02-22T18:16:16.502Z,2.60
2024-02-22T18:19:33.977Z,2.25
2024-02-22T18:22:46.484Z,2.70
2024-02-22T18:26:02.478Z,2.87
2024-02-22T18:29:18.562Z,2.85
2024-02-22T18:32:32.432Z,2.70
2024-02-22T18:35:42.067Z,3.28
2024-02-22T18:38:55.200Z,2.35
2024-02-22T18:42:08.479Z,2.62
2024-02-22T18:45:23.498Z,2.60
2024-02-22T18:48:37.052Z,3.10
2024-02-22T18:51:52.261Z,2.75
2024-02-22T18:55:12.335Z,2.42
2024-02-22T18:58:33.802Z,2.65
2024-02-22T19:01:59.171Z,2.70
2024-02-22T19:05:14.303Z,3.20
2024-02-22T19:08:25.702Z,2.62
2024-02-22T19:11:38.914Z,2.50
2024-02-22T19:14:56.027Z,3.12
2024-02-22T19:18:10.422Z,2.97
2024-02-22T19:21:24.018Z,3.22
2024-02-22T19:24:36.504Z,3.50
2024-02-22T19:27:50.093Z,3.03
2024-02-22T19:31:02.612Z,3.28
2024-02-22T19:37:36.220Z,3.17
2024-02-22T19:40:47.897Z,3.25
2024-02-22T19:44:11.406Z,2.75
2024-02-22T19:47:28.012Z,2.60
2024-02-22T19:50:49.618Z,2.80
2024-02-22T19:54:09.707Z,2.92
2024-02-22T19:57:25.435Z,2.62
2024-02-22T20:00:39.306Z,2.97
2024-02-22T20:03:53.814Z,2.30
2024-02-22T20:07:06.551Z,2.60
2024-02-22T20:10:21.719Z,2.30
2024-02-22T20:13:38.087Z,2.45
2024-02-22T20:16:55.039Z,2.22
2024-02-22T20:20:08.268Z,2.40
2024-02-22T20:23:23.816Z,2.20
2024-02-22T20:26:41.037Z,2.25
2024-02-22T20:29:58.521Z,2.12
2024-02-22T20:33:13.925Z,2.62
2024-02-22T20:36:27.628Z,2.22
2024-02-22T20:39:43.674Z,2.20
2024-02-22T20:43:03.916Z,2.50
2024-02-22T20:46:16.531Z,2.05
2024-02-22T20:49:29.407Z,2.45
2024-02-22T20:52:44.418Z,2.30
2024-02-22T20:55:57.894Z,2.05
2024-02-22T20:59:08.228Z,2.00
2024-02-22T21:02:21.195Z,2.03
2024-02-22T21:05:35.811Z,2.05
2024-02-22T21:08:50.309Z,2.20
2024-02-22T21:12:08.303Z,1.80
2024-02-22T21:15:21.476Z,2.20
2024-02-22T21:18:36.555Z,1.93
2024-02-22T21:21:59.463Z,2.15
2024-02-22T21:25:13.608Z,1.98
2024-02-22T21:28:35.016Z,1.83
2024-02-22T21:31:55.752Z,1.92
2024-02-22T21:35:22.174Z,1.65
2024-02-22T21:38:39.165Z,1.90
2024-02-22T21:41:56.836Z,2.05
2024-02-22T21:45:06.461Z,1.98
2024-02-22T21:48:22.896Z,1.90
2024-02-22T21:51:33.994Z,2.10
2024-02-22T21:54:57.041Z,1.90
2024-02-22T21:58:14.106Z,1.95
2024-02-22T22:01:29.551Z,1.85
2024-02-22T22:04:44.620Z,1.60
2024-02-22T22:07:57.621Z,2.00
2024-02-22T22:11:14.908Z,1.60
2024-02-22T22:14:28.803Z,1.87
2024-02-22T22:17:42.839Z,2.00
2024-02-22T22:20:55.923Z,1.75
2024-02-22T22:24:08.936Z,2.00
2024-02-22T22:27:19.626Z,1.80
2024-02-22T22:30:33.904Z,1.83
2024-02-22T22:33:48.341Z,1.62
2024-02-22T22:37:01.960Z,1.90
2024-02-22T22:40:16.205Z,2.12
2024-02-22T22:43:28.833Z,2.05
2024-02-22T22:46:44.061Z,1.67
2024-02-22T22:49:55.615Z,1.80
2024-02-22T22:53:05.602Z,1.98
2024-02-22T22:56:19.489Z,1.83
2024-02-22T22:59:30.628Z,2.28
2024-02-22T23:02:44.705Z,1.87
2024-02-22T23:05:56.646Z,2.08
2024-02-22T23:09:10.373Z,2.00
2024-02-22T23:12:24.769Z,1.90
2024-02-22T23:15:39.716Z,2.10
2024-02-22T23:18:54.083Z,1.90
2024-02-22T23:22:08.225Z,1.92
2024-02-22T23:25:20.429Z,2.10
2024-02-22T23:28:37.472Z,2.17
2024-02-22T23:31:51.273Z,1.95
2024-02-22T23:35:17.675Z,2.03
2024-02-22T23:38:34.871Z,2.28
2024-02-22T23:41:50.508Z,2.78
2024-02-22T23:45:02.490Z,2.30
2024-02-22T23:48:19.332Z,1.98
2024-02-22T23:51:31.787Z,2.12
2024-02-22T23:54:54.220Z,2.12
2024-02-22T23:58:08.787Z,1.90
